ENRK weather

Rakkestad Astorp Airport
Rakkestad, Østfold, Norway

Public forecast

Using degrees Celsius for public forecast. Weather courtesy of forecast.io.

METAR (pilot weather report)

Closest report is Moss Airport, Rygge, 17.2 nm (31.9 km) W. Retrieved 2019/05/23 01:50 UTC (34 minutes ago):

ENRY 230150Z AUTO 19009KT 9999NDV NCD 09/06 Q1010

TAF (pilot weather forecast)

Forecast is more than 12 hours old.

Closest forecast is Moss Airport, Rygge, 17.2 nm (31.9 km) W. Retrieved 2019/05/22 00:57 UTC (1 day ago):

TAF ENRY 222300Z 2300/2324 22012KT 9999 FEW030 BECMG 2320/2322 -RA BKN012 TEMPO 2321/2324 4000 SHRA BKN009 SCT018CB